sensor_id;sensor_type;location;lat;lon;timestamp;temperature;humidity
11132;DHT22;5620;53.570;9.718;2022-08-11T00:00:21;18.30;99.90
11132;DHT22;5620;53.570;9.718;2022-08-11T00:03:03;18.30;99.90
11132;DHT22;5620;53.570;9.718;2022-08-11T00:05:29;18.20;99.90
11132;DHT22;5620;53.570;9.718;2022-08-11T00:07:56;18.20;99.90
11132;DHT22;5620;53.570;9.718;2022-08-11T00:10:26;18.20;99.90
11132;DHT22;5620;53.570;9.718;2022-08-11T00:15:19;18.20;99.90
11132;DHT22;5620;53.570;9.718;2022-08-11T00:17:46;18.20;99.90
11132;DHT22;5620;53.570;9.718;2022-08-11T00:20:13;18.10;99.90
11132;DHT22;5620;53.570;9.718;2022-08-11T00:22:41;18.10;99.90
11132;DHT22;5620;53.570;9.718;2022-08-11T00:25:18;18.10;99.90
11132;DHT22;5620;53.570;9.718;2022-08-11T00:27:45;18.10;99.90
11132;DHT22;5620;53.570;9.718;2022-08-11T00:30:12;18.10;99.90
11132;DHT22;5620;53.570;9.718;2022-08-11T00:32:43;18.00;99.90
11132;DHT22;5620;53.570;9.718;2022-08-11T00:35:14;18.00;99.90
11132;DHT22;5620;53.570;9.718;2022-08-11T00:37:47;17.90;99.90
11132;DHT22;5620;53.570;9.718;2022-08-11T00:40:24;17.90;99.90
11132;DHT22;5620;53.570;9.718;2022-08-11T00:46:15;17.80;99.90
11132;DHT22;5620;53.570;9.718;2022-08-11T00:49:00;17.80;99.90
11132;DHT22;5620;53.570;9.718;2022-08-11T00:51:58;17.70;99.90
11132;DHT22;5620;53.570;9.718;2022-08-11T01:00:05;17.60;99.90
11132;DHT22;5620;53.570;9.718;2022-08-11T01:06:10;17.60;99.90
11132;DHT22;5620;53.570;9.718;2022-08-11T01:21:54;17.40;1.00
11132;DHT22;5620;53.570;9.718;2022-08-11T01:47:41;17.20;1.00
11132;DHT22;5620;53.570;9.718;2022-08-11T01:50:17;17.20;1.00
11132;DHT22;5620;53.570;9.718;2022-08-11T02:01:37;17.00;1.00
11132;DHT22;5620;53.570;9.718;2022-08-11T02:12:14;16.90;1.00
11132;DHT22;5620;53.570;9.718;2022-08-11T02:15:29;16.90;1.00
11132;DHT22;5620;53.570;9.718;2022-08-11T02:18:22;16.90;8.80
11132;DHT22;5620;53.570;9.718;2022-08-11T02:21:07;16.80;18.90
11132;DHT22;5620;53.570;9.718;2022-08-11T02:29:14;16.70;65.70
11132;DHT22;5620;53.570;9.718;2022-08-11T02:37:41;16.60;99.90
11132;DHT22;5620;53.570;9.718;2022-08-11T02:43:10;16.60;99.90
11132;DHT22;5620;53.570;9.718;2022-08-11T02:48:59;16.50;99.90
11132;DHT22;5620;53.570;9.718;2022-08-11T02:54:32;16.50;99.90
11132;DHT22;5620;53.570;9.718;2022-08-11T02:57:11;16.50;99.90
11132;DHT22;5620;53.570;9.718;2022-08-11T02:59:51;16.40;99.90
11132;DHT22;5620;53.570;9.718;2022-08-11T03:02:37;16.40;99.90
11132;DHT22;5620;53.570;9.718;2022-08-11T03:08:15;16.40;99.90
11132;DHT22;5620;53.570;9.718;2022-08-11T03:11:00;16.40;99.90
11132;DHT22;5620;53.570;9.718;2022-08-11T03:13:30;16.40;1.00
11132;DHT22;5620;53.570;9.718;2022-08-11T03:16:17;16.40;1.00
11132;DHT22;5620;53.570;9.718;2022-08-11T03:25:07;16.30;1.00
11132;DHT22;5620;53.570;9.718;2022-08-11T03:27:56;16.30;1.00
11132;DHT22;5620;53.570;9.718;2022-08-11T03:30:25;16.20;1.00
11132;DHT22;5620;53.570;9.718;2022-08-11T03:35:32;16.20;1.00
11132;DHT22;5620;53.570;9.718;2022-08-11T03:38:02;16.20;1.00
11132;DHT22;5620;53.570;9.718;2022-08-11T03:45:49;16.20;1.00
11132;DHT22;5620;53.570;9.718;2022-08-11T03:48:24;16.30;28.00
11132;DHT22;5620;53.570;9.718;2022-08-11T03:51:06;16.10;39.30
11132;DHT22;5620;53.570;9.718;2022-08-11T03:54:04;16.20;66.40
11132;DHT22;5620;53.570;9.718;2022-08-11T04:02:56;16.10;99.40
11132;DHT22;5620;53.570;9.718;2022-08-11T04:05:48;16.10;99.90
11132;DHT22;5620;53.570;9.718;2022-08-11T04:11:40;16.20;99.90
11132;DHT22;5620;53.570;9.718;2022-08-11T04:40:11;16.50;99.90
11132;DHT22;5620;53.570;9.718;2022-08-11T04:48:48;16.70;91.70
11132;DHT22;5620;53.570;9.718;2022-08-11T04:56:50;16.90;42.80
11132;DHT22;5620;53.570;9.718;2022-08-11T05:15:12;17.60;1.00
11132;DHT22;5620;53.570;9.718;2022-08-11T05:20:28;17.90;1.00
11132;DHT22;5620;53.570;9.718;2022-08-11T05:22:55;18.00;1.00
11132;DHT22;5620;53.570;9.718;2022-08-11T05:25:29;18.20;1.00
11132;DHT22;5620;53.570;9.718;2022-08-11T05:28:11;18.30;99.90
11132;DHT22;5620;53.570;9.718;2022-08-11T05:30:38;18.50;99.90
11132;DHT22;5620;53.570;9.718;2022-08-11T05:33:09;18.60;99.90
11132;DHT22;5620;53.570;9.718;2022-08-11T05:35:47;18.80;99.90
11132;DHT22;5620;53.570;9.718;2022-08-11T05:38:23;18.90;99.90
11132;DHT22;5620;53.570;9.718;2022-08-11T05:40:50;19.10;99.90
11132;DHT22;5620;53.570;9.718;2022-08-11T05:43:17;19.20;99.90
11132;DHT22;5620;53.570;9.718;2022-08-11T05:45:43;19.30;99.90
11132;DHT22;5620;53.570;9.718;2022-08-11T05:48:20;19.50;99.90
11132;DHT22;5620;53.570;9.718;2022-08-11T05:50:55;19.70;99.90
11132;DHT22;5620;53.570;9.718;2022-08-11T05:53:22;19.90;98.30
11132;DHT22;5620;53.570;9.718;2022-08-11T05:55:48;20.00;84.00
11132;DHT22;5620;53.570;9.718;2022-08-11T05:58:15;20.20;68.40
11132;DHT22;5620;53.570;9.718;2022-08-11T06:00:43;20.30;38.80
11132;DHT22;5620;53.570;9.718;2022-08-11T06:03:09;20.40;9.40
11132;DHT22;5620;53.570;9.718;2022-08-11T06:05:39;20.60;1.00
11132;DHT22;5620;53.570;9.718;2022-08-11T06:08:06;20.70;1.00
11132;DHT22;5620;53.570;9.718;2022-08-11T06:10:34;20.80;1.00
11132;DHT22;5620;53.570;9.718;2022-08-11T06:13:01;20.90;1.00
11132;DHT22;5620;53.570;9.718;2022-08-11T06:15:30;21.00;1.00
11132;DHT22;5620;53.570;9.718;2022-08-11T06:17:58;21.10;1.00
11132;DHT22;5620;53.570;9.718;2022-08-11T06:20:24;21.20;1.00
11132;DHT22;5620;53.570;9.718;2022-08-11T06:22:58;21.30;1.00
11132;DHT22;5620;53.570;9.718;2022-08-11T06:25:34;21.40;1.00
11132;DHT22;5620;53.570;9.718;2022-08-11T06:28:01;21.50;1.00
11132;DHT22;5620;53.570;9.718;2022-08-11T06:30:43;21.60;1.00
11132;DHT22;5620;53.570;9.718;2022-08-11T06:33:14;21.70;99.90
11132;DHT22;5620;53.570;9.718;2022-08-11T06:38:52;21.90;99.90
11132;DHT22;5620;53.570;9.718;2022-08-11T06:41:24;22.00;99.90
11132;DHT22;5620;53.570;9.718;2022-08-11T06:46:43;22.10;99.90
11132;DHT22;5620;53.570;9.718;2022-08-11T06:49:11;22.20;99.90
11132;DHT22;5620;53.570;9.718;2022-08-11T06:51:37;22.30;99.90
11132;DHT22;5620;53.570;9.718;2022-08-11T06:54:03;22.30;99.90
11132;DHT22;5620;53.570;9.718;2022-08-11T06:56:31;22.40;99.90
11132;DHT22;5620;53.570;9.718;2022-08-11T06:59:00;22.40;99.90
11132;DHT22;5620;53.570;9.718;2022-08-11T07:01:39;22.50;99.90
11132;DHT22;5620;53.570;9.718;2022-08-11T07:04:08;22.60;99.90
11132;DHT22;5620;53.570;9.718;2022-08-11T07:10:02;22.80;99.90
11132;DHT22;5620;53.570;9.718;2022-08-11T07:12:40;22.90;99.90
11132;DHT22;5620;53.570;9.718;2022-08-11T07:15:09;22.90;99.90
11132;DHT22;5620;53.570;9.718;2022-08-11T07:17:41;23.00;99.90
11132;DHT22;5620;53.570;9.718;2022-08-11T07:20:09;23.10;99.90
11132;DHT22;5620;53.570;9.718;2022-08-11T07:22:35;23.20;95.60
11132;DHT22;5620;53.570;9.718;2022-08-11T07:25:13;23.30;88.20
11132;DHT22;5620;53.570;9.718;2022-08-11T07:30:10;23.50;62.70
11132;DHT22;5620;53.570;9.718;2022-08-11T07:32:57;23.50;55.90
11132;DHT22;5620;53.570;9.718;2022-08-11T07:35:30;23.60;43.40
11132;DHT22;5620;53.570;9.718;2022-08-11T07:38:06;23.60;32.60
11132;DHT22;5620;53.570;9.718;2022-08-11T07:40:33;23.70;22.00
11132;DHT22;5620;53.570;9.718;2022-08-11T07:42:59;23.70;13.30
11132;DHT22;5620;53.570;9.718;2022-08-11T07:45:26;23.80;4.30
11132;DHT22;5620;53.570;9.718;2022-08-11T07:47:53;23.80;1.00
11132;DHT22;5620;53.570;9.718;2022-08-11T07:50:20;23.90;1.00
11132;DHT22;5620;53.570;9.718;2022-08-11T07:52:46;24.00;1.00
11132;DHT22;5620;53.570;9.718;2022-08-11T07:55:14;24.10;1.00
11132;DHT22;5620;53.570;9.718;2022-08-11T07:57:44;24.10;1.00
11132;DHT22;5620;53.570;9.718;2022-08-11T08:00:10;24.10;1.00
11132;DHT22;5620;53.570;9.718;2022-08-11T08:02:36;24.20;1.00
11132;DHT22;5620;53.570;9.718;2022-08-11T08:05:05;24.30;1.00
11132;DHT22;5620;53.570;9.718;2022-08-11T08:07:31;24.30;1.00
11132;DHT22;5620;53.570;9.718;2022-08-11T08:09:56;24.30;1.00
11132;DHT22;5620;53.570;9.718;2022-08-11T08:12:24;24.30;1.00
11132;DHT22;5620;53.570;9.718;2022-08-11T08:14:51;24.40;1.00
11132;DHT22;5620;53.570;9.718;2022-08-11T08:17:18;24.40;1.00
11132;DHT22;5620;53.570;9.718;2022-08-11T08:19:47;24.40;1.00
11132;DHT22;5620;53.570;9.718;2022-08-11T08:22:18;24.40;1.00
11132;DHT22;5620;53.570;9.718;2022-08-11T08:24:44;24.50;1.00
11132;DHT22;5620;53.570;9.718;2022-08-11T08:27:11;24.50;1.00
11132;DHT22;5620;53.570;9.718;2022-08-11T08:29:38;24.50;1.00
11132;DHT22;5620;53.570;9.718;2022-08-11T08:32:06;24.60;1.00
11132;DHT22;5620;53.570;9.718;2022-08-11T08:34:34;24.60;1.00
11132;DHT22;5620;53.570;9.718;2022-08-11T08:37:00;24.60;1.00
11132;DHT22;5620;53.570;9.718;2022-08-11T08:39:25;24.60;1.00
11132;DHT22;5620;53.570;9.718;2022-08-11T08:41:56;24.70;1.00
11132;DHT22;5620;53.570;9.718;2022-08-11T08:44:24;24.80;1.00
11132;DHT22;5620;53.570;9.718;2022-08-11T08:46:55;24.90;1.00
11132;DHT22;5620;53.570;9.718;2022-08-11T08:49:25;24.90;1.00
11132;DHT22;5620;53.570;9.718;2022-08-11T08:51:53;24.90;1.00
11132;DHT22;5620;53.570;9.718;2022-08-11T08:54:46;25.00;1.00
11132;DHT22;5620;53.570;9.718;2022-08-11T08:57:10;25.10;1.00
11132;DHT22;5620;53.570;9.718;2022-08-11T08:59:40;25.20;1.00
11132;DHT22;5620;53.570;9.718;2022-08-11T09:02:07;25.30;1.00
11132;DHT22;5620;53.570;9.718;2022-08-11T09:04:33;25.30;1.00
11132;DHT22;5620;53.570;9.718;2022-08-11T09:07:05;25.40;1.00
11132;DHT22;5620;53.570;9.718;2022-08-11T09:09:32;25.50;1.00
11132;DHT22;5620;53.570;9.718;2022-08-11T09:11:57;25.60;1.00
11132;DHT22;5620;53.570;9.718;2022-08-11T09:14:26;25.70;1.00
11132;DHT22;5620;53.570;9.718;2022-08-11T09:16:52;25.80;1.00
11132;DHT22;5620;53.570;9.718;2022-08-11T09:19:19;25.80;1.00
11132;DHT22;5620;53.570;9.718;2022-08-11T09:21:48;25.90;1.00
11132;DHT22;5620;53.570;9.718;2022-08-11T09:24:14;25.90;1.00
11132;DHT22;5620;53.570;9.718;2022-08-11T09:26:40;26.00;1.00
11132;DHT22;5620;53.570;9.718;2022-08-11T09:29:08;26.10;1.00
11132;DHT22;5620;53.570;9.718;2022-08-11T09:31:33;26.10;1.00
11132;DHT22;5620;53.570;9.718;2022-08-11T09:34:00;26.30;1.00
11132;DHT22;5620;53.570;9.718;2022-08-11T09:36:26;26.30;1.00
11132;DHT22;5620;53.570;9.718;2022-08-11T09:38:52;26.40;1.00
11132;DHT22;5620;53.570;9.718;2022-08-11T09:41:18;26.50;1.00
11132;DHT22;5620;53.570;9.718;2022-08-11T09:43:45;26.50;1.00
11132;DHT22;5620;53.570;9.718;2022-08-11T09:46:12;26.60;1.00
11132;DHT22;5620;53.570;9.718;2022-08-11T09:48:41;26.80;1.00
11132;DHT22;5620;53.570;9.718;2022-08-11T09:51:08;26.90;1.00
11132;DHT22;5620;53.570;9.718;2022-08-11T09:53:37;27.10;1.00
11132;DHT22;5620;53.570;9.718;2022-08-11T09:56:05;27.10;1.00
11132;DHT22;5620;53.570;9.718;2022-08-11T09:58:31;27.30;1.00
11132;DHT22;5620;53.570;9.718;2022-08-11T10:00:59;27.40;1.00
11132;DHT22;5620;53.570;9.718;2022-08-11T10:03:27;27.50;1.00
11132;DHT22;5620;53.570;9.718;2022-08-11T10:05:59;27.60;1.00
11132;DHT22;5620;53.570;9.718;2022-08-11T10:08:27;27.80;1.00
11132;DHT22;5620;53.570;9.718;2022-08-11T10:10:55;27.80;1.00
11132;DHT22;5620;53.570;9.718;2022-08-11T10:13:26;27.90;1.00
11132;DHT22;5620;53.570;9.718;2022-08-11T10:15:56;28.10;1.00
11132;DHT22;5620;53.570;9.718;2022-08-11T10:18:49;28.30;1.00
11132;DHT22;5620;53.570;9.718;2022-08-11T10:23:53;28.80;1.00
11132;DHT22;5620;53.570;9.718;2022-08-11T10:26:19;29.00;1.00
11132;DHT22;5620;53.570;9.718;2022-08-11T10:28:45;29.10;1.00
11132;DHT22;5620;53.570;9.718;2022-08-11T10:31:11;29.30;1.00
11132;DHT22;5620;53.570;9.718;2022-08-11T10:33:38;29.50;1.00
11132;DHT22;5620;53.570;9.718;2022-08-11T10:36:06;29.70;1.00
11132;DHT22;5620;53.570;9.718;2022-08-11T10:38:32;29.90;1.00
11132;DHT22;5620;53.570;9.718;2022-08-11T10:40:58;30.10;1.00
11132;DHT22;5620;53.570;9.718;2022-08-11T10:43:24;30.20;1.00
11132;DHT22;5620;53.570;9.718;2022-08-11T10:45:50;30.40;1.00
11132;DHT22;5620;53.570;9.718;2022-08-11T10:48:17;30.60;1.00
11132;DHT22;5620;53.570;9.718;2022-08-11T10:50:49;30.80;1.00
11132;DHT22;5620;53.570;9.718;2022-08-11T10:53:17;30.90;1.00
11132;DHT22;5620;53.570;9.718;2022-08-11T10:55:44;31.10;1.00
11132;DHT22;5620;53.570;9.718;2022-08-11T10:58:11;31.20;1.00
11132;DHT22;5620;53.570;9.718;2022-08-11T11:00:37;31.30;1.00
11132;DHT22;5620;53.570;9.718;2022-08-11T11:03:04;31.70;1.00
11132;DHT22;5620;53.570;9.718;2022-08-11T11:05:31;32.30;1.00
11132;DHT22;5620;53.570;9.718;2022-08-11T11:08:06;33.30;1.00
11132;DHT22;5620;53.570;9.718;2022-08-11T11:10:34;34.70;1.00
11132;DHT22;5620;53.570;9.718;2022-08-11T11:13:01;36.50;1.00
11132;DHT22;5620;53.570;9.718;2022-08-11T11:15:29;38.40;1.00
11132;DHT22;5620;53.570;9.718;2022-08-11T11:18:20;40.10;99.90
11132;DHT22;5620;53.570;9.718;2022-08-11T11:21:01;41.80;99.90
11132;DHT22;5620;53.570;9.718;2022-08-11T11:26:26;44.90;99.90
11132;DHT22;5620;53.570;9.718;2022-08-11T11:32:16;47.10;99.90
11132;DHT22;5620;53.570;9.718;2022-08-11T11:37:50;48.70;99.90
11132;DHT22;5620;53.570;9.718;2022-08-11T11:40:18;49.40;99.90
11132;DHT22;5620;53.570;9.718;2022-08-11T11:42:44;49.70;99.90
11132;DHT22;5620;53.570;9.718;2022-08-11T11:45:19;49.90;99.90
11132;DHT22;5620;53.570;9.718;2022-08-11T11:47:50;50.40;99.90
11132;DHT22;5620;53.570;9.718;2022-08-11T11:50:21;50.80;99.90
11132;DHT22;5620;53.570;9.718;2022-08-11T11:52:47;50.90;99.90
11132;DHT22;5620;53.570;9.718;2022-08-11T11:55:13;51.30;99.90
11132;DHT22;5620;53.570;9.718;2022-08-11T11:57:38;51.60;99.90
11132;DHT22;5620;53.570;9.718;2022-08-11T12:00:06;51.80;99.90
11132;DHT22;5620;53.570;9.718;2022-08-11T12:02:32;52.00;99.90
11132;DHT22;5620;53.570;9.718;2022-08-11T12:04:59;52.10;99.90
11132;DHT22;5620;53.570;9.718;2022-08-11T12:07:25;52.30;99.90
11132;DHT22;5620;53.570;9.718;2022-08-11T12:09:51;52.70;99.90
11132;DHT22;5620;53.570;9.718;2022-08-11T12:12:17;52.90;99.90
11132;DHT22;5620;53.570;9.718;2022-08-11T12:14:43;53.20;99.90
11132;DHT22;5620;53.570;9.718;2022-08-11T12:17:08;53.10;99.90
11132;DHT22;5620;53.570;9.718;2022-08-11T12:19:34;52.70;99.90
11132;DHT22;5620;53.570;9.718;2022-08-11T12:22:00;52.40;99.90
11132;DHT22;5620;53.570;9.718;2022-08-11T12:24:30;52.50;99.90
11132;DHT22;5620;53.570;9.718;2022-08-11T12:26:56;52.80;99.90
11132;DHT22;5620;53.570;9.718;2022-08-11T12:29:23;53.00;99.90
11132;DHT22;5620;53.570;9.718;2022-08-11T12:31:49;53.60;99.90
11132;DHT22;5620;53.570;9.718;2022-08-11T12:34:16;54.10;99.90
11132;DHT22;5620;53.570;9.718;2022-08-11T12:36:55;54.70;99.90
11132;DHT22;5620;53.570;9.718;2022-08-11T12:39:24;55.10;99.90
11132;DHT22;5620;53.570;9.718;2022-08-11T12:41:50;55.20;99.90
11132;DHT22;5620;53.570;9.718;2022-08-11T12:44:16;55.40;99.90
11132;DHT22;5620;53.570;9.718;2022-08-11T12:46:43;55.50;99.90
11132;DHT22;5620;53.570;9.718;2022-08-11T12:49:13;55.70;99.90
11132;DHT22;5620;53.570;9.718;2022-08-11T12:51:53;55.80;99.90
11132;DHT22;5620;53.570;9.718;2022-08-11T12:54:28;55.90;99.90
11132;DHT22;5620;53.570;9.718;2022-08-11T12:57:05;55.90;99.90
11132;DHT22;5620;53.570;9.718;2022-08-11T12:59:34;56.20;99.90
11132;DHT22;5620;53.570;9.718;2022-08-11T13:02:01;56.30;99.90
11132;DHT22;5620;53.570;9.718;2022-08-11T13:04:28;56.10;99.90
11132;DHT22;5620;53.570;9.718;2022-08-11T13:06:54;56.20;99.90
11132;DHT22;5620;53.570;9.718;2022-08-11T13:09:19;56.40;99.90
11132;DHT22;5620;53.570;9.718;2022-08-11T13:11:45;56.80;99.90
11132;DHT22;5620;53.570;9.718;2022-08-11T13:14:11;57.10;99.90
11132;DHT22;5620;53.570;9.718;2022-08-11T13:16:37;57.40;99.90
11132;DHT22;5620;53.570;9.718;2022-08-11T13:19:03;57.50;99.90
11132;DHT22;5620;53.570;9.718;2022-08-11T13:21:30;57.60;99.90
11132;DHT22;5620;53.570;9.718;2022-08-11T13:23:56;57.50;99.90
11132;DHT22;5620;53.570;9.718;2022-08-11T13:26:23;57.60;99.90
11132;DHT22;5620;53.570;9.718;2022-08-11T13:28:50;57.70;99.90
11132;DHT22;5620;53.570;9.718;2022-08-11T13:31:16;57.90;99.90
11132;DHT22;5620;53.570;9.718;2022-08-11T13:33:46;58.00;99.90
11132;DHT22;5620;53.570;9.718;2022-08-11T13:36:12;58.20;99.90
11132;DHT22;5620;53.570;9.718;2022-08-11T13:38:42;58.30;99.90
11132;DHT22;5620;53.570;9.718;2022-08-11T13:41:08;58.60;99.90
11132;DHT22;5620;53.570;9.718;2022-08-11T13:43:34;58.80;99.90
11132;DHT22;5620;53.570;9.718;2022-08-11T13:46:00;58.80;99.90
11132;DHT22;5620;53.570;9.718;2022-08-11T13:48:26;58.90;99.90
11132;DHT22;5620;53.570;9.718;2022-08-11T13:50:51;59.00;99.90
11132;DHT22;5620;53.570;9.718;2022-08-11T13:53:21;59.30;99.90
11132;DHT22;5620;53.570;9.718;2022-08-11T13:55:47;59.50;99.90
11132;DHT22;5620;53.570;9.718;2022-08-11T13:58:13;59.60;99.90
11132;DHT22;5620;53.570;9.718;2022-08-11T14:00:42;60.00;99.90
11132;DHT22;5620;53.570;9.718;2022-08-11T14:03:11;60.20;99.90
11132;DHT22;5620;53.570;9.718;2022-08-11T14:05:40;60.50;99.90
11132;DHT22;5620;53.570;9.718;2022-08-11T14:08:10;60.70;99.90
11132;DHT22;5620;53.570;9.718;2022-08-11T14:10:37;60.40;99.90
11132;DHT22;5620;53.570;9.718;2022-08-11T14:13:10;60.50;99.90
11132;DHT22;5620;53.570;9.718;2022-08-11T14:15:41;60.70;99.90
11132;DHT22;5620;53.570;9.718;2022-08-11T14:18:29;60.80;99.90
11132;DHT22;5620;53.570;9.718;2022-08-11T14:20:57;60.90;99.90
11132;DHT22;5620;53.570;9.718;2022-08-11T14:23:32;61.10;99.90
11132;DHT22;5620;53.570;9.718;2022-08-11T14:26:00;61.20;99.90
11132;DHT22;5620;53.570;9.718;2022-08-11T14:28:26;61.00;99.90
11132;DHT22;5620;53.570;9.718;2022-08-11T14:30:52;61.10;99.90
11132;DHT22;5620;53.570;9.718;2022-08-11T14:33:18;61.00;99.90
11132;DHT22;5620;53.570;9.718;2022-08-11T14:35:43;61.40;99.90
11132;DHT22;5620;53.570;9.718;2022-08-11T14:38:09;61.50;99.90
11132;DHT22;5620;53.570;9.718;2022-08-11T14:40:35;61.70;99.90
11132;DHT22;5620;53.570;9.718;2022-08-11T14:43:01;61.70;99.90
11132;DHT22;5620;53.570;9.718;2022-08-11T14:45:27;61.30;99.90
11132;DHT22;5620;53.570;9.718;2022-08-11T14:47:58;61.40;99.90
11132;DHT22;5620;53.570;9.718;2022-08-11T14:50:26;61.30;99.90
11132;DHT22;5620;53.570;9.718;2022-08-11T14:52:58;60.70;99.90
11132;DHT22;5620;53.570;9.718;2022-08-11T14:55:28;60.20;99.90
11132;DHT22;5620;53.570;9.718;2022-08-11T14:57:54;60.20;99.90
11132;DHT22;5620;53.570;9.718;2022-08-11T15:00:20;60.50;99.90
11132;DHT22;5620;53.570;9.718;2022-08-11T15:02:47;60.80;99.90
11132;DHT22;5620;53.570;9.718;2022-08-11T15:05:13;61.20;99.90
11132;DHT22;5620;53.570;9.718;2022-08-11T15:07:39;61.30;99.90
11132;DHT22;5620;53.570;9.718;2022-08-11T15:10:07;61.30;99.90
11132;DHT22;5620;53.570;9.718;2022-08-11T15:12:35;61.40;99.90
11132;DHT22;5620;53.570;9.718;2022-08-11T15:15:05;61.70;99.90
11132;DHT22;5620;53.570;9.718;2022-08-11T15:17:31;61.90;99.90
11132;DHT22;5620;53.570;9.718;2022-08-11T15:19:58;61.90;99.90
11132;DHT22;5620;53.570;9.718;2022-08-11T15:22:24;61.90;99.90
11132;DHT22;5620;53.570;9.718;2022-08-11T15:24:50;61.70;99.90
11132;DHT22;5620;53.570;9.718;2022-08-11T15:27:18;61.30;99.90
11132;DHT22;5620;53.570;9.718;2022-08-11T15:29:46;61.40;99.90
11132;DHT22;5620;53.570;9.718;2022-08-11T15:32:13;61.80;99.90
11132;DHT22;5620;53.570;9.718;2022-08-11T15:34:40;61.80;99.90
11132;DHT22;5620;53.570;9.718;2022-08-11T15:37:08;61.90;99.90
11132;DHT22;5620;53.570;9.718;2022-08-11T15:39:44;62.30;99.90
11132;DHT22;5620;53.570;9.718;2022-08-11T15:42:13;61.70;99.90
11132;DHT22;5620;53.570;9.718;2022-08-11T15:44:41;61.30;99.90
11132;DHT22;5620;53.570;9.718;2022-08-11T15:47:08;61.10;99.90
11132;DHT22;5620;53.570;9.718;2022-08-11T15:49:36;61.20;99.90
11132;DHT22;5620;53.570;9.718;2022-08-11T15:52:15;61.00;99.90
11132;DHT22;5620;53.570;9.718;2022-08-11T15:54:43;60.80;99.90
11132;DHT22;5620;53.570;9.718;2022-08-11T15:57:11;61.20;99.90
11132;DHT22;5620;53.570;9.718;2022-08-11T15:59:38;61.60;99.90
11132;DHT22;5620;53.570;9.718;2022-08-11T16:02:05;61.60;99.90
11132;DHT22;5620;53.570;9.718;2022-08-11T16:04:34;61.40;99.90
11132;DHT22;5620;53.570;9.718;2022-08-11T16:07:07;61.30;99.90
11132;DHT22;5620;53.570;9.718;2022-08-11T16:09:40;61.20;99.90
11132;DHT22;5620;53.570;9.718;2022-08-11T16:12:14;61.20;99.90
11132;DHT22;5620;53.570;9.718;2022-08-11T16:14:44;61.30;99.90
11132;DHT22;5620;53.570;9.718;2022-08-11T16:17:11;61.20;99.90
11132;DHT22;5620;53.570;9.718;2022-08-11T16:19:40;60.80;99.90
11132;DHT22;5620;53.570;9.718;2022-08-11T16:22:09;60.50;99.90
11132;DHT22;5620;53.570;9.718;2022-08-11T16:24:39;60.60;99.90
11132;DHT22;5620;53.570;9.718;2022-08-11T16:27:05;60.70;99.90
11132;DHT22;5620;53.570;9.718;2022-08-11T16:29:32;60.00;99.90
11132;DHT22;5620;53.570;9.718;2022-08-11T16:31:58;59.30;99.90
11132;DHT22;5620;53.570;9.718;2022-08-11T16:34:26;59.30;99.90
11132;DHT22;5620;53.570;9.718;2022-08-11T16:36:53;58.70;99.90
11132;DHT22;5620;53.570;9.718;2022-08-11T16:39:20;58.50;99.90
11132;DHT22;5620;53.570;9.718;2022-08-11T16:41:46;58.50;99.90
11132;DHT22;5620;53.570;9.718;2022-08-11T16:44:16;58.40;99.90
11132;DHT22;5620;53.570;9.718;2022-08-11T16:46:42;58.40;99.90
11132;DHT22;5620;53.570;9.718;2022-08-11T16:49:12;57.70;99.90
11132;DHT22;5620;53.570;9.718;2022-08-11T16:51:40;57.00;99.90
11132;DHT22;5620;53.570;9.718;2022-08-11T16:54:06;56.80;99.90
11132;DHT22;5620;53.570;9.718;2022-08-11T16:56:42;56.90;99.90
11132;DHT22;5620;53.570;9.718;2022-08-11T16:59:16;57.10;99.90
11132;DHT22;5620;53.570;9.718;2022-08-11T17:01:47;56.70;99.90
11132;DHT22;5620;53.570;9.718;2022-08-11T17:07:23;56.40;99.90
11132;DHT22;5620;53.570;9.718;2022-08-11T17:09:51;55.60;99.90
11132;DHT22;5620;53.570;9.718;2022-08-11T17:12:20;54.80;99.90
11132;DHT22;5620;53.570;9.718;2022-08-11T17:14:55;54.10;99.90
11132;DHT22;5620;53.570;9.718;2022-08-11T17:17:35;53.70;99.90
11132;DHT22;5620;53.570;9.718;2022-08-11T17:20:04;53.60;99.90
11132;DHT22;5620;53.570;9.718;2022-08-11T17:22:31;53.10;99.90
11132;DHT22;5620;53.570;9.718;2022-08-11T17:24:59;51.30;99.90
11132;DHT22;5620;53.570;9.718;2022-08-11T17:27:25;47.60;99.90
11132;DHT22;5620;53.570;9.718;2022-08-11T17:29:57;44.20;1.00
11132;DHT22;5620;53.570;9.718;2022-08-11T17:32:35;41.60;1.00
11132;DHT22;5620;53.570;9.718;2022-08-11T17:35:13;39.30;1.00
11132;DHT22;5620;53.570;9.718;2022-08-11T17:37:39;37.60;1.00
11132;DHT22;5620;53.570;9.718;2022-08-11T17:40:08;36.30;1.00
11132;DHT22;5620;53.570;9.718;2022-08-11T17:42:34;35.40;1.00
11132;DHT22;5620;53.570;9.718;2022-08-11T17:45:01;34.60;1.00
11132;DHT22;5620;53.570;9.718;2022-08-11T17:47:28;33.80;1.00
11132;DHT22;5620;53.570;9.718;2022-08-11T17:49:54;33.10;1.00
11132;DHT22;5620;53.570;9.718;2022-08-11T17:52:21;32.60;1.00
11132;DHT22;5620;53.570;9.718;2022-08-11T17:54:49;32.00;1.00
11132;DHT22;5620;53.570;9.718;2022-08-11T17:57:16;31.60;1.00
11132;DHT22;5620;53.570;9.718;2022-08-11T17:59:42;31.20;1.00
11132;DHT22;5620;53.570;9.718;2022-08-11T18:02:09;30.80;1.00
11132;DHT22;5620;53.570;9.718;2022-08-11T18:04:36;30.40;1.00
11132;DHT22;5620;53.570;9.718;2022-08-11T18:07:01;30.00;1.00
11132;DHT22;5620;53.570;9.718;2022-08-11T18:09:27;29.70;1.00
11132;DHT22;5620;53.570;9.718;2022-08-11T18:11:54;29.40;1.00
11132;DHT22;5620;53.570;9.718;2022-08-11T18:14:22;29.20;1.00
11132;DHT22;5620;53.570;9.718;2022-08-11T18:16:48;28.90;1.00
11132;DHT22;5620;53.570;9.718;2022-08-11T18:19:14;28.70;1.00
11132;DHT22;5620;53.570;9.718;2022-08-11T18:21:44;28.50;1.00
11132;DHT22;5620;53.570;9.718;2022-08-11T18:24:12;28.30;1.00
11132;DHT22;5620;53.570;9.718;2022-08-11T18:26:42;28.10;1.00
11132;DHT22;5620;53.570;9.718;2022-08-11T18:29:10;27.90;1.00
11132;DHT22;5620;53.570;9.718;2022-08-11T18:31:45;27.70;1.00
11132;DHT22;5620;53.570;9.718;2022-08-11T18:34:15;27.60;1.00
11132;DHT22;5620;53.570;9.718;2022-08-11T18:37:29;27.40;1.00
11132;DHT22;5620;53.570;9.718;2022-08-11T18:39:42;27.20;1.00
11132;DHT22;5620;53.570;9.718;2022-08-11T18:42:15;27.00;1.00
11132;DHT22;5620;53.570;9.718;2022-08-11T18:44:42;26.90;1.00
11132;DHT22;5620;53.570;9.718;2022-08-11T18:47:10;26.70;1.00
11132;DHT22;5620;53.570;9.718;2022-08-11T18:49:40;26.50;1.00
11132;DHT22;5620;53.570;9.718;2022-08-11T18:52:08;26.40;1.00
11132;DHT22;5620;53.570;9.718;2022-08-11T18:54:36;26.20;1.00
11132;DHT22;5620;53.570;9.718;2022-08-11T18:57:05;26.10;1.00
11132;DHT22;5620;53.570;9.718;2022-08-11T18:59:35;25.90;1.00
11132;DHT22;5620;53.570;9.718;2022-08-11T19:02:03;25.70;1.00
11132;DHT22;5620;53.570;9.718;2022-08-11T19:04:30;25.60;1.00
11132;DHT22;5620;53.570;9.718;2022-08-11T19:06:56;25.50;1.00
11132;DHT22;5620;53.570;9.718;2022-08-11T19:09:23;25.30;1.00
11132;DHT22;5620;53.570;9.718;2022-08-11T19:11:51;25.10;1.00
11132;DHT22;5620;53.570;9.718;2022-08-11T19:14:18;25.00;1.00
11132;DHT22;5620;53.570;9.718;2022-08-11T19:16:46;24.90;1.00
11132;DHT22;5620;53.570;9.718;2022-08-11T19:19:13;24.70;1.00
11132;DHT22;5620;53.570;9.718;2022-08-11T19:21:40;24.60;1.00
11132;DHT22;5620;53.570;9.718;2022-08-11T19:24:07;24.50;1.00
11132;DHT22;5620;53.570;9.718;2022-08-11T19:26:34;24.40;1.00